Terminal Aerodrome Forecast
Issued by NWS Tampa Bay Area, FL

Home | Current Version | Previous Version | Text Only | Print | Product List | Glossary On
Versions: 1 2 3 4 5 6 7 8 9 10 11 12 13
690
FTUS42 KTBW 202332
TAFSRQ
TAF
KSRQ 202332Z 2100/2124 19007KT P6SM FEW250
     FM210900 17006KT 5SM BR FEW010 SCT250
     FM211100 17006KT 6SM BR BKN010 BKN250
     FM211400 17011KT P6SM SCT020 BKN120
     FM211700 20014G20KT P6SM SCT035 BKN120=

USA.gov is the U.S. government's official web portal to all federal, state and local government web resources and services.